sensor_id;sensor_type;location;lat;lon;timestamp;P1;durP1;ratioP1;P2;durP2;ratioP2
4448;SDS011;2237;51.870;6.160;2023-08-30T00:02:13;5.85;;;3.30;;
4448;SDS011;2237;51.870;6.160;2023-08-30T00:04:41;9.18;;;3.67;;
4448;SDS011;2237;51.870;6.160;2023-08-30T00:07:08;7.32;;;3.83;;
4448;SDS011;2237;51.870;6.160;2023-08-30T00:09:36;6.28;;;3.65;;
4448;SDS011;2237;51.870;6.160;2023-08-30T00:12:03;6.68;;;3.85;;
4448;SDS011;2237;51.870;6.160;2023-08-30T00:14:30;7.22;;;4.07;;
4448;SDS011;2237;51.870;6.160;2023-08-30T00:16:56;8.65;;;4.78;;
4448;SDS011;2237;51.870;6.160;2023-08-30T00:19:22;6.55;;;3.90;;
4448;SDS011;2237;51.870;6.160;2023-08-30T00:21:49;7.82;;;4.60;;
4448;SDS011;2237;51.870;6.160;2023-08-30T00:24:15;9.02;;;4.97;;
4448;SDS011;2237;51.870;6.160;2023-08-30T00:26:42;7.38;;;4.32;;
4448;SDS011;2237;51.870;6.160;2023-08-30T00:29:08;7.43;;;4.60;;
4448;SDS011;2237;51.870;6.160;2023-08-30T00:31:35;8.27;;;4.70;;
4448;SDS011;2237;51.870;6.160;2023-08-30T00:34:01;8.95;;;5.03;;
4448;SDS011;2237;51.870;6.160;2023-08-30T00:36:27;6.95;;;4.63;;
4448;SDS011;2237;51.870;6.160;2023-08-30T00:38:54;8.32;;;4.38;;
4448;SDS011;2237;51.870;6.160;2023-08-30T00:41:20;7.38;;;4.88;;
4448;SDS011;2237;51.870;6.160;2023-08-30T00:43:47;8.02;;;4.43;;
4448;SDS011;2237;51.870;6.160;2023-08-30T00:46:13;8.27;;;4.72;;
4448;SDS011;2237;51.870;6.160;2023-08-30T00:48:40;8.63;;;4.80;;
4448;SDS011;2237;51.870;6.160;2023-08-30T00:51:07;9.43;;;5.35;;
4448;SDS011;2237;51.870;6.160;2023-08-30T00:53:33;8.52;;;5.00;;
4448;SDS011;2237;51.870;6.160;2023-08-30T00:56:00;9.13;;;5.10;;
4448;SDS011;2237;51.870;6.160;2023-08-30T00:58:27;10.18;;;5.30;;
4448;SDS011;2237;51.870;6.160;2023-08-30T01:00:53;7.30;;;4.90;;
4448;SDS011;2237;51.870;6.160;2023-08-30T01:03:21;8.23;;;5.10;;
4448;SDS011;2237;51.870;6.160;2023-08-30T01:05:48;12.27;;;5.70;;
4448;SDS011;2237;51.870;6.160;2023-08-30T01:08:15;8.05;;;4.75;;
4448;SDS011;2237;51.870;6.160;2023-08-30T01:13:18;7.85;;;5.22;;
4448;SDS011;2237;51.870;6.160;2023-08-30T01:15:47;9.52;;;5.30;;
4448;SDS011;2237;51.870;6.160;2023-08-30T01:18:18;8.05;;;4.53;;
4448;SDS011;2237;51.870;6.160;2023-08-30T01:20:46;8.45;;;5.00;;
4448;SDS011;2237;51.870;6.160;2023-08-30T01:23:22;9.90;;;4.95;;
4448;SDS011;2237;51.870;6.160;2023-08-30T01:26:05;8.52;;;4.78;;
4448;SDS011;2237;51.870;6.160;2023-08-30T01:28:36;11.98;;;4.97;;
4448;SDS011;2237;51.870;6.160;2023-08-30T01:31:03;9.32;;;5.03;;
4448;SDS011;2237;51.870;6.160;2023-08-30T01:33:32;8.98;;;4.72;;
4448;SDS011;2237;51.870;6.160;2023-08-30T01:35:59;8.48;;;4.93;;
4448;SDS011;2237;51.870;6.160;2023-08-30T01:38:28;8.38;;;4.88;;
4448;SDS011;2237;51.870;6.160;2023-08-30T01:40:59;6.93;;;4.40;;
4448;SDS011;2237;51.870;6.160;2023-08-30T01:43:26;10.30;;;5.30;;
4448;SDS011;2237;51.870;6.160;2023-08-30T01:45:56;7.45;;;4.80;;
4448;SDS011;2237;51.870;6.160;2023-08-30T01:48:24;7.05;;;4.32;;
4448;SDS011;2237;51.870;6.160;2023-08-30T01:50:53;9.25;;;4.80;;
4448;SDS011;2237;51.870;6.160;2023-08-30T01:55:52;8.38;;;4.53;;
4448;SDS011;2237;51.870;6.160;2023-08-30T01:58:18;10.52;;;4.60;;
4448;SDS011;2237;51.870;6.160;2023-08-30T02:00:46;9.05;;;4.95;;
4448;SDS011;2237;51.870;6.160;2023-08-30T02:03:13;8.30;;;4.55;;
4448;SDS011;2237;51.870;6.160;2023-08-30T02:05:47;8.63;;;4.97;;
4448;SDS011;2237;51.870;6.160;2023-08-30T02:08:25;11.32;;;4.88;;
4448;SDS011;2237;51.870;6.160;2023-08-30T02:10:56;8.65;;;4.82;;
4448;SDS011;2237;51.870;6.160;2023-08-30T02:13:28;8.35;;;5.15;;
4448;SDS011;2237;51.870;6.160;2023-08-30T02:15:56;7.18;;;4.40;;
4448;SDS011;2237;51.870;6.160;2023-08-30T02:18:26;9.93;;;4.93;;
4448;SDS011;2237;51.870;6.160;2023-08-30T02:20:53;11.88;;;4.95;;
4448;SDS011;2237;51.870;6.160;2023-08-30T02:23:23;9.23;;;5.18;;
4448;SDS011;2237;51.870;6.160;2023-08-30T02:25:51;8.95;;;4.82;;
4448;SDS011;2237;51.870;6.160;2023-08-30T02:28:17;11.95;;;5.05;;
4448;SDS011;2237;51.870;6.160;2023-08-30T02:30:44;9.77;;;5.00;;
4448;SDS011;2237;51.870;6.160;2023-08-30T02:33:10;9.00;;;4.90;;
4448;SDS011;2237;51.870;6.160;2023-08-30T02:35:36;8.70;;;5.07;;
4448;SDS011;2237;51.870;6.160;2023-08-30T02:38:03;8.73;;;4.65;;
4448;SDS011;2237;51.870;6.160;2023-08-30T02:40:31;9.35;;;5.13;;
4448;SDS011;2237;51.870;6.160;2023-08-30T02:42:58;11.65;;;5.53;;
4448;SDS011;2237;51.870;6.160;2023-08-30T02:45:24;9.27;;;5.45;;
4448;SDS011;2237;51.870;6.160;2023-08-30T02:47:51;11.00;;;5.40;;
4448;SDS011;2237;51.870;6.160;2023-08-30T02:50:17;9.98;;;5.35;;
4448;SDS011;2237;51.870;6.160;2023-08-30T02:52:43;8.73;;;5.03;;
4448;SDS011;2237;51.870;6.160;2023-08-30T02:55:10;11.25;;;6.15;;
4448;SDS011;2237;51.870;6.160;2023-08-30T02:57:36;9.80;;;4.97;;
4448;SDS011;2237;51.870;6.160;2023-08-30T03:00:03;10.27;;;5.53;;
4448;SDS011;2237;51.870;6.160;2023-08-30T03:02:32;9.05;;;4.95;;
4448;SDS011;2237;51.870;6.160;2023-08-30T03:04:59;9.70;;;5.75;;
4448;SDS011;2237;51.870;6.160;2023-08-30T03:07:28;10.35;;;5.65;;
4448;SDS011;2237;51.870;6.160;2023-08-30T03:09:56;10.88;;;5.70;;
4448;SDS011;2237;51.870;6.160;2023-08-30T03:12:23;10.18;;;5.53;;
4448;SDS011;2237;51.870;6.160;2023-08-30T03:14:49;9.65;;;5.30;;
4448;SDS011;2237;51.870;6.160;2023-08-30T03:17:16;10.45;;;5.25;;
4448;SDS011;2237;51.870;6.160;2023-08-30T03:19:42;10.10;;;6.00;;
4448;SDS011;2237;51.870;6.160;2023-08-30T03:22:09;9.65;;;5.75;;
4448;SDS011;2237;51.870;6.160;2023-08-30T03:24:35;9.77;;;5.68;;
4448;SDS011;2237;51.870;6.160;2023-08-30T03:27:02;12.15;;;5.63;;
4448;SDS011;2237;51.870;6.160;2023-08-30T03:29:28;10.25;;;5.88;;
4448;SDS011;2237;51.870;6.160;2023-08-30T03:31:55;10.60;;;5.72;;
4448;SDS011;2237;51.870;6.160;2023-08-30T03:34:21;12.07;;;5.57;;
4448;SDS011;2237;51.870;6.160;2023-08-30T03:36:48;12.15;;;5.50;;
4448;SDS011;2237;51.870;6.160;2023-08-30T03:39:20;13.10;;;6.63;;
4448;SDS011;2237;51.870;6.160;2023-08-30T03:41:47;11.95;;;5.72;;
4448;SDS011;2237;51.870;6.160;2023-08-30T03:44:13;12.68;;;6.53;;
4448;SDS011;2237;51.870;6.160;2023-08-30T03:46:40;10.30;;;6.13;;
4448;SDS011;2237;51.870;6.160;2023-08-30T03:49:06;10.15;;;5.93;;
4448;SDS011;2237;51.870;6.160;2023-08-30T03:51:33;16.27;;;6.82;;
4448;SDS011;2237;51.870;6.160;2023-08-30T03:54:00;9.93;;;5.82;;
4448;SDS011;2237;51.870;6.160;2023-08-30T03:56:26;9.98;;;5.95;;
4448;SDS011;2237;51.870;6.160;2023-08-30T03:58:53;9.82;;;6.18;;
4448;SDS011;2237;51.870;6.160;2023-08-30T04:01:19;10.73;;;6.13;;
4448;SDS011;2237;51.870;6.160;2023-08-30T04:03:45;11.88;;;6.97;;
4448;SDS011;2237;51.870;6.160;2023-08-30T04:06:12;11.40;;;6.40;;
4448;SDS011;2237;51.870;6.160;2023-08-30T04:08:38;11.70;;;6.93;;
4448;SDS011;2237;51.870;6.160;2023-08-30T04:11:05;12.18;;;7.47;;
4448;SDS011;2237;51.870;6.160;2023-08-30T04:13:31;11.52;;;7.00;;
4448;SDS011;2237;51.870;6.160;2023-08-30T04:15:58;12.25;;;7.00;;
4448;SDS011;2237;51.870;6.160;2023-08-30T04:18:25;12.32;;;7.05;;
4448;SDS011;2237;51.870;6.160;2023-08-30T04:20:51;12.85;;;6.65;;
4448;SDS011;2237;51.870;6.160;2023-08-30T04:23:17;11.98;;;6.88;;
4448;SDS011;2237;51.870;6.160;2023-08-30T04:25:44;15.15;;;6.65;;
4448;SDS011;2237;51.870;6.160;2023-08-30T04:28:11;13.93;;;7.00;;
4448;SDS011;2237;51.870;6.160;2023-08-30T04:30:37;13.85;;;7.80;;
4448;SDS011;2237;51.870;6.160;2023-08-30T04:33:05;12.20;;;6.60;;
4448;SDS011;2237;51.870;6.160;2023-08-30T04:35:32;12.48;;;7.32;;
4448;SDS011;2237;51.870;6.160;2023-08-30T04:38:00;12.77;;;7.60;;
4448;SDS011;2237;51.870;6.160;2023-08-30T04:40:27;15.65;;;8.82;;
4448;SDS011;2237;51.870;6.160;2023-08-30T04:42:54;13.38;;;7.95;;
4448;SDS011;2237;51.870;6.160;2023-08-30T04:45:21;16.38;;;8.27;;
4448;SDS011;2237;51.870;6.160;2023-08-30T04:47:48;14.95;;;8.02;;
4448;SDS011;2237;51.870;6.160;2023-08-30T04:50:15;16.58;;;7.90;;
4448;SDS011;2237;51.870;6.160;2023-08-30T04:52:42;16.13;;;8.48;;
4448;SDS011;2237;51.870;6.160;2023-08-30T04:55:09;13.55;;;7.97;;
4448;SDS011;2237;51.870;6.160;2023-08-30T04:57:35;16.38;;;8.93;;
4448;SDS011;2237;51.870;6.160;2023-08-30T05:00:02;17.83;;;8.80;;
4448;SDS011;2237;51.870;6.160;2023-08-30T05:02:31;14.73;;;8.80;;
4448;SDS011;2237;51.870;6.160;2023-08-30T05:04:57;16.02;;;8.80;;
4448;SDS011;2237;51.870;6.160;2023-08-30T05:07:24;15.40;;;8.32;;
4448;SDS011;2237;51.870;6.160;2023-08-30T05:09:51;15.55;;;8.82;;
4448;SDS011;2237;51.870;6.160;2023-08-30T05:12:17;14.70;;;8.90;;
4448;SDS011;2237;51.870;6.160;2023-08-30T05:14:43;16.15;;;9.05;;
4448;SDS011;2237;51.870;6.160;2023-08-30T05:17:10;19.17;;;9.20;;
4448;SDS011;2237;51.870;6.160;2023-08-30T05:19:36;17.52;;;9.38;;
4448;SDS011;2237;51.870;6.160;2023-08-30T05:22:03;18.77;;;9.10;;
4448;SDS011;2237;51.870;6.160;2023-08-30T05:24:29;17.38;;;9.60;;
4448;SDS011;2237;51.870;6.160;2023-08-30T05:26:56;17.58;;;8.55;;
4448;SDS011;2237;51.870;6.160;2023-08-30T05:29:22;16.23;;;9.40;;
4448;SDS011;2237;51.870;6.160;2023-08-30T05:31:49;15.80;;;9.45;;
4448;SDS011;2237;51.870;6.160;2023-08-30T05:34:15;16.10;;;9.13;;
4448;SDS011;2237;51.870;6.160;2023-08-30T05:36:42;13.80;;;7.95;;
4448;SDS011;2237;51.870;6.160;2023-08-30T05:39:08;15.20;;;7.80;;
4448;SDS011;2237;51.870;6.160;2023-08-30T05:41:35;16.77;;;8.75;;
4448;SDS011;2237;51.870;6.160;2023-08-30T05:44:01;13.95;;;7.95;;
4448;SDS011;2237;51.870;6.160;2023-08-30T05:46:28;16.33;;;8.40;;
4448;SDS011;2237;51.870;6.160;2023-08-30T05:48:55;16.13;;;8.73;;
4448;SDS011;2237;51.870;6.160;2023-08-30T05:51:22;16.20;;;8.52;;
4448;SDS011;2237;51.870;6.160;2023-08-30T05:53:48;16.58;;;8.77;;
4448;SDS011;2237;51.870;6.160;2023-08-30T05:56:14;15.40;;;7.65;;
4448;SDS011;2237;51.870;6.160;2023-08-30T05:58:41;16.52;;;8.93;;
4448;SDS011;2237;51.870;6.160;2023-08-30T06:01:07;14.43;;;8.80;;
4448;SDS011;2237;51.870;6.160;2023-08-30T06:03:34;16.48;;;9.25;;
4448;SDS011;2237;51.870;6.160;2023-08-30T06:06:01;13.75;;;7.32;;
4448;SDS011;2237;51.870;6.160;2023-08-30T06:08:27;13.27;;;8.00;;
4448;SDS011;2237;51.870;6.160;2023-08-30T06:10:54;13.93;;;8.30;;
4448;SDS011;2237;51.870;6.160;2023-08-30T06:13:20;15.05;;;9.38;;
4448;SDS011;2237;51.870;6.160;2023-08-30T06:15:50;19.67;;;9.02;;
4448;SDS011;2237;51.870;6.160;2023-08-30T06:18:18;13.55;;;8.35;;
4448;SDS011;2237;51.870;6.160;2023-08-30T06:20:44;21.33;;;8.63;;
4448;SDS011;2237;51.870;6.160;2023-08-30T06:23:11;15.40;;;9.00;;
4448;SDS011;2237;51.870;6.160;2023-08-30T06:25:37;17.10;;;9.23;;
4448;SDS011;2237;51.870;6.160;2023-08-30T06:28:04;16.00;;;8.45;;
4448;SDS011;2237;51.870;6.160;2023-08-30T06:30:31;13.43;;;7.75;;
4448;SDS011;2237;51.870;6.160;2023-08-30T06:32:57;13.82;;;8.77;;
4448;SDS011;2237;51.870;6.160;2023-08-30T06:35:24;13.40;;;8.07;;
4448;SDS011;2237;51.870;6.160;2023-08-30T06:37:50;14.98;;;7.47;;
4448;SDS011;2237;51.870;6.160;2023-08-30T06:40:18;12.05;;;6.30;;
4448;SDS011;2237;51.870;6.160;2023-08-30T06:42:44;12.52;;;6.78;;
4448;SDS011;2237;51.870;6.160;2023-08-30T06:45:11;14.25;;;7.75;;
4448;SDS011;2237;51.870;6.160;2023-08-30T06:47:37;13.60;;;7.38;;
4448;SDS011;2237;51.870;6.160;2023-08-30T06:50:04;13.77;;;6.97;;
4448;SDS011;2237;51.870;6.160;2023-08-30T06:52:31;11.10;;;7.20;;
4448;SDS011;2237;51.870;6.160;2023-08-30T06:54:57;11.27;;;6.70;;
4448;SDS011;2237;51.870;6.160;2023-08-30T06:57:24;14.63;;;7.57;;
4448;SDS011;2237;51.870;6.160;2023-08-30T06:59:50;11.15;;;7.25;;
4448;SDS011;2237;51.870;6.160;2023-08-30T07:02:16;12.27;;;7.35;;
4448;SDS011;2237;51.870;6.160;2023-08-30T07:04:43;14.05;;;8.23;;
4448;SDS011;2237;51.870;6.160;2023-08-30T07:07:09;16.52;;;6.45;;
4448;SDS011;2237;51.870;6.160;2023-08-30T07:09:37;11.48;;;6.90;;
4448;SDS011;2237;51.870;6.160;2023-08-30T07:12:04;11.32;;;6.60;;
4448;SDS011;2237;51.870;6.160;2023-08-30T07:14:30;11.98;;;7.05;;
4448;SDS011;2237;51.870;6.160;2023-08-30T07:16:57;15.73;;;7.57;;
4448;SDS011;2237;51.870;6.160;2023-08-30T07:19:24;13.85;;;6.53;;
4448;SDS011;2237;51.870;6.160;2023-08-30T07:21:50;14.38;;;7.95;;
4448;SDS011;2237;51.870;6.160;2023-08-30T07:24:17;13.55;;;7.57;;
4448;SDS011;2237;51.870;6.160;2023-08-30T07:26:43;13.25;;;7.30;;
4448;SDS011;2237;51.870;6.160;2023-08-30T07:29:10;13.07;;;7.55;;
4448;SDS011;2237;51.870;6.160;2023-08-30T07:31:36;13.57;;;7.10;;
4448;SDS011;2237;51.870;6.160;2023-08-30T07:34:03;14.07;;;7.50;;
4448;SDS011;2237;51.870;6.160;2023-08-30T07:36:29;14.73;;;7.63;;
4448;SDS011;2237;51.870;6.160;2023-08-30T07:39:12;15.60;;;7.43;;
4448;SDS011;2237;51.870;6.160;2023-08-30T07:41:39;14.70;;;7.47;;
4448;SDS011;2237;51.870;6.160;2023-08-30T07:44:05;14.32;;;8.02;;
4448;SDS011;2237;51.870;6.160;2023-08-30T07:46:32;13.45;;;8.13;;
4448;SDS011;2237;51.870;6.160;2023-08-30T07:48:58;13.73;;;7.75;;
4448;SDS011;2237;51.870;6.160;2023-08-30T07:51:24;13.93;;;8.07;;
4448;SDS011;2237;51.870;6.160;2023-08-30T07:53:51;14.98;;;7.78;;
4448;SDS011;2237;51.870;6.160;2023-08-30T07:56:17;13.25;;;8.05;;
4448;SDS011;2237;51.870;6.160;2023-08-30T07:58:43;16.50;;;8.75;;
4448;SDS011;2237;51.870;6.160;2023-08-30T08:01:10;17.00;;;9.00;;
4448;SDS011;2237;51.870;6.160;2023-08-30T08:03:36;18.58;;;9.52;;
4448;SDS011;2237;51.870;6.160;2023-08-30T08:06:10;19.42;;;10.18;;
4448;SDS011;2237;51.870;6.160;2023-08-30T08:08:37;22.20;;;9.30;;
4448;SDS011;2237;51.870;6.160;2023-08-30T08:11:04;16.23;;;9.23;;
4448;SDS011;2237;51.870;6.160;2023-08-30T08:13:30;14.05;;;7.78;;
4448;SDS011;2237;51.870;6.160;2023-08-30T08:15:57;16.77;;;8.80;;
4448;SDS011;2237;51.870;6.160;2023-08-30T08:18:24;13.95;;;8.75;;
4448;SDS011;2237;51.870;6.160;2023-08-30T08:20:51;16.25;;;8.43;;
4448;SDS011;2237;51.870;6.160;2023-08-30T08:23:17;13.98;;;7.90;;
4448;SDS011;2237;51.870;6.160;2023-08-30T08:25:44;14.77;;;8.30;;
4448;SDS011;2237;51.870;6.160;2023-08-30T08:28:10;16.05;;;8.95;;
4448;SDS011;2237;51.870;6.160;2023-08-30T08:30:37;17.20;;;7.53;;
4448;SDS011;2237;51.870;6.160;2023-08-30T08:33:04;14.48;;;8.27;;
4448;SDS011;2237;51.870;6.160;2023-08-30T08:35:30;11.95;;;7.70;;
4448;SDS011;2237;51.870;6.160;2023-08-30T08:37:57;15.73;;;7.88;;
4448;SDS011;2237;51.870;6.160;2023-08-30T08:40:23;13.75;;;8.18;;
4448;SDS011;2237;51.870;6.160;2023-08-30T08:43:08;14.20;;;8.10;;
4448;SDS011;2237;51.870;6.160;2023-08-30T08:45:36;12.75;;;7.63;;
4448;SDS011;2237;51.870;6.160;2023-08-30T08:48:03;14.18;;;8.30;;
4448;SDS011;2237;51.870;6.160;2023-08-30T08:50:32;17.00;;;7.90;;
4448;SDS011;2237;51.870;6.160;2023-08-30T08:52:59;16.27;;;8.00;;
4448;SDS011;2237;51.870;6.160;2023-08-30T08:55:27;14.15;;;8.30;;
4448;SDS011;2237;51.870;6.160;2023-08-30T08:57:57;16.10;;;8.52;;
4448;SDS011;2237;51.870;6.160;2023-08-30T09:00:25;17.88;;;8.73;;
4448;SDS011;2237;51.870;6.160;2023-08-30T09:02:53;16.75;;;9.15;;
4448;SDS011;2237;51.870;6.160;2023-08-30T09:05:21;14.98;;;8.85;;
4448;SDS011;2237;51.870;6.160;2023-08-30T09:07:48;17.98;;;8.85;;
4448;SDS011;2237;51.870;6.160;2023-08-30T09:10:20;15.25;;;8.75;;
4448;SDS011;2237;51.870;6.160;2023-08-30T09:12:47;14.60;;;8.45;;
4448;SDS011;2237;51.870;6.160;2023-08-30T09:15:14;14.40;;;8.25;;
4448;SDS011;2237;51.870;6.160;2023-08-30T09:17:41;14.10;;;8.20;;
4448;SDS011;2237;51.870;6.160;2023-08-30T09:20:09;15.05;;;8.52;;
4448;SDS011;2237;51.870;6.160;2023-08-30T09:22:37;13.85;;;7.70;;
4448;SDS011;2237;51.870;6.160;2023-08-30T09:25:06;17.80;;;8.50;;
4448;SDS011;2237;51.870;6.160;2023-08-30T09:27:34;12.65;;;8.00;;
4448;SDS011;2237;51.870;6.160;2023-08-30T09:30:03;12.07;;;6.95;;
4448;SDS011;2237;51.870;6.160;2023-08-30T09:32:43;11.80;;;7.25;;
4448;SDS011;2237;51.870;6.160;2023-08-30T09:35:11;12.23;;;7.38;;
4448;SDS011;2237;51.870;6.160;2023-08-30T09:37:37;11.57;;;6.70;;
4448;SDS011;2237;51.870;6.160;2023-08-30T09:40:04;11.73;;;6.85;;
4448;SDS011;2237;51.870;6.160;2023-08-30T09:42:31;11.38;;;6.93;;
4448;SDS011;2237;51.870;6.160;2023-08-30T09:44:58;18.40;;;7.30;;
4448;SDS011;2237;51.870;6.160;2023-08-30T09:47:25;8.98;;;5.68;;
4448;SDS011;2237;51.870;6.160;2023-08-30T09:49:55;8.20;;;5.13;;
4448;SDS011;2237;51.870;6.160;2023-08-30T09:52:23;7.97;;;3.50;;
4448;SDS011;2237;51.870;6.160;2023-08-30T09:54:51;8.93;;;4.40;;
4448;SDS011;2237;51.870;6.160;2023-08-30T09:57:18;7.78;;;3.33;;
4448;SDS011;2237;51.870;6.160;2023-08-30T09:59:45;6.57;;;4.43;;
4448;SDS011;2237;51.870;6.160;2023-08-30T10:02:12;7.95;;;4.35;;
4448;SDS011;2237;51.870;6.160;2023-08-30T10:04:39;6.30;;;4.00;;
4448;SDS011;2237;51.870;6.160;2023-08-30T10:07:07;6.18;;;3.85;;
4448;SDS011;2237;51.870;6.160;2023-08-30T10:09:36;5.90;;;3.38;;
4448;SDS011;2237;51.870;6.160;2023-08-30T10:12:20;5.28;;;3.55;;
4448;SDS011;2237;51.870;6.160;2023-08-30T10:14:48;4.93;;;3.40;;
4448;SDS011;2237;51.870;6.160;2023-08-30T10:17:15;7.03;;;3.15;;
4448;SDS011;2237;51.870;6.160;2023-08-30T10:19:44;5.47;;;3.50;;
4448;SDS011;2237;51.870;6.160;2023-08-30T10:22:11;5.18;;;3.22;;
4448;SDS011;2237;51.870;6.160;2023-08-30T10:24:45;5.70;;;3.50;;
4448;SDS011;2237;51.870;6.160;2023-08-30T10:27:33;5.50;;;3.10;;
4448;SDS011;2237;51.870;6.160;2023-08-30T10:30:01;4.90;;;3.20;;
4448;SDS011;2237;51.870;6.160;2023-08-30T10:32:30;5.53;;;2.88;;
4448;SDS011;2237;51.870;6.160;2023-08-30T10:35:00;7.00;;;3.75;;
4448;SDS011;2237;51.870;6.160;2023-08-30T10:37:27;6.88;;;3.47;;
4448;SDS011;2237;51.870;6.160;2023-08-30T10:39:58;6.43;;;3.80;;
4448;SDS011;2237;51.870;6.160;2023-08-30T10:42:25;5.57;;;3.70;;
4448;SDS011;2237;51.870;6.160;2023-08-30T10:44:56;5.65;;;3.60;;
4448;SDS011;2237;51.870;6.160;2023-08-30T10:47:39;4.80;;;3.22;;
4448;SDS011;2237;51.870;6.160;2023-08-30T10:50:07;5.85;;;3.70;;
4448;SDS011;2237;51.870;6.160;2023-08-30T10:52:35;5.20;;;3.40;;
4448;SDS011;2237;51.870;6.160;2023-08-30T10:55:09;5.53;;;3.67;;
4448;SDS011;2237;51.870;6.160;2023-08-30T10:57:36;5.53;;;3.30;;
4448;SDS011;2237;51.870;6.160;2023-08-30T11:02:30;5.65;;;3.30;;
4448;SDS011;2237;51.870;6.160;2023-08-30T11:04:58;6.63;;;3.67;;
4448;SDS011;2237;51.870;6.160;2023-08-30T11:07:26;4.93;;;3.50;;
4448;SDS011;2237;51.870;6.160;2023-08-30T11:09:52;5.63;;;2.97;;
4448;SDS011;2237;51.870;6.160;2023-08-30T11:12:19;5.25;;;3.72;;
4448;SDS011;2237;51.870;6.160;2023-08-30T11:14:49;5.75;;;3.58;;
4448;SDS011;2237;51.870;6.160;2023-08-30T11:17:16;6.32;;;3.70;;
4448;SDS011;2237;51.870;6.160;2023-08-30T11:19:45;5.13;;;3.40;;
4448;SDS011;2237;51.870;6.160;2023-08-30T11:22:12;5.05;;;3.40;;
4448;SDS011;2237;51.870;6.160;2023-08-30T11:24:39;5.10;;;3.70;;
4448;SDS011;2237;51.870;6.160;2023-08-30T11:27:06;7.93;;;3.92;;
4448;SDS011;2237;51.870;6.160;2023-08-30T11:29:33;5.75;;;4.05;;
4448;SDS011;2237;51.870;6.160;2023-08-30T11:31:59;5.90;;;4.00;;
4448;SDS011;2237;51.870;6.160;2023-08-30T11:34:26;5.40;;;3.80;;
4448;SDS011;2237;51.870;6.160;2023-08-30T11:36:52;5.75;;;4.03;;
4448;SDS011;2237;51.870;6.160;2023-08-30T11:39:19;4.63;;;3.58;;
4448;SDS011;2237;51.870;6.160;2023-08-30T11:41:48;6.88;;;4.47;;
4448;SDS011;2237;51.870;6.160;2023-08-30T11:44:19;6.72;;;4.50;;
4448;SDS011;2237;51.870;6.160;2023-08-30T11:46:45;6.65;;;4.43;;
4448;SDS011;2237;51.870;6.160;2023-08-30T11:49:12;5.93;;;4.38;;
4448;SDS011;2237;51.870;6.160;2023-08-30T11:51:39;7.57;;;4.65;;
4448;SDS011;2237;51.870;6.160;2023-08-30T11:54:06;8.50;;;4.60;;
4448;SDS011;2237;51.870;6.160;2023-08-30T11:56:34;6.38;;;4.50;;
4448;SDS011;2237;51.870;6.160;2023-08-30T11:59:01;7.28;;;4.43;;
4448;SDS011;2237;51.870;6.160;2023-08-30T12:01:30;6.53;;;4.55;;
4448;SDS011;2237;51.870;6.160;2023-08-30T12:03:58;7.40;;;4.40;;
4448;SDS011;2237;51.870;6.160;2023-08-30T12:06:35;7.35;;;4.35;;
4448;SDS011;2237;51.870;6.160;2023-08-30T12:09:02;7.03;;;4.70;;
4448;SDS011;2237;51.870;6.160;2023-08-30T12:11:31;6.25;;;4.30;;
4448;SDS011;2237;51.870;6.160;2023-08-30T12:14:03;7.90;;;4.25;;
4448;SDS011;2237;51.870;6.160;2023-08-30T12:16:31;6.18;;;4.07;;
4448;SDS011;2237;51.870;6.160;2023-08-30T12:19:06;7.40;;;4.72;;
4448;SDS011;2237;51.870;6.160;2023-08-30T12:21:43;7.45;;;4.80;;
4448;SDS011;2237;51.870;6.160;2023-08-30T12:24:10;5.00;;;3.15;;
4448;SDS011;2237;51.870;6.160;2023-08-30T12:26:37;3.72;;;2.17;;
4448;SDS011;2237;51.870;6.160;2023-08-30T12:29:06;3.53;;;2.15;;
4448;SDS011;2237;51.870;6.160;2023-08-30T12:31:33;3.72;;;1.95;;
4448;SDS011;2237;51.870;6.160;2023-08-30T12:33:59;4.75;;;1.90;;
4448;SDS011;2237;51.870;6.160;2023-08-30T12:36:26;2.65;;;1.90;;
4448;SDS011;2237;51.870;6.160;2023-08-30T12:38:53;3.78;;;1.90;;
4448;SDS011;2237;51.870;6.160;2023-08-30T12:41:19;1.55;;;1.08;;
4448;SDS011;2237;51.870;6.160;2023-08-30T12:43:47;5.30;;;2.15;;
4448;SDS011;2237;51.870;6.160;2023-08-30T12:46:14;3.92;;;2.08;;
4448;SDS011;2237;51.870;6.160;2023-08-30T12:48:40;3.80;;;2.03;;
4448;SDS011;2237;51.870;6.160;2023-08-30T12:51:07;3.75;;;2.08;;
4448;SDS011;2237;51.870;6.160;2023-08-30T12:53:33;3.08;;;1.80;;
4448;SDS011;2237;51.870;6.160;2023-08-30T12:56:00;2.38;;;1.30;;
4448;SDS011;2237;51.870;6.160;2023-08-30T12:58:26;2.38;;;1.55;;
4448;SDS011;2237;51.870;6.160;2023-08-30T13:00:52;2.67;;;1.15;;
4448;SDS011;2237;51.870;6.160;2023-08-30T13:03:19;6.07;;;1.80;;
4448;SDS011;2237;51.870;6.160;2023-08-30T13:05:46;3.08;;;1.02;;
4448;SDS011;2237;51.870;6.160;2023-08-30T13:08:12;6.47;;;1.50;;
4448;SDS011;2237;51.870;6.160;2023-08-30T13:10:39;3.40;;;1.83;;
4448;SDS011;2237;51.870;6.160;2023-08-30T13:13:05;7.00;;;1.70;;
4448;SDS011;2237;51.870;6.160;2023-08-30T13:15:32;3.10;;;1.27;;
4448;SDS011;2237;51.870;6.160;2023-08-30T13:17:58;4.28;;;1.70;;
4448;SDS011;2237;51.870;6.160;2023-08-30T13:20:25;2.83;;;1.10;;
4448;SDS011;2237;51.870;6.160;2023-08-30T13:22:52;4.25;;;1.60;;
4448;SDS011;2237;51.870;6.160;2023-08-30T13:25:18;3.63;;;1.90;;
4448;SDS011;2237;51.870;6.160;2023-08-30T13:27:45;9.85;;;2.55;;
4448;SDS011;2237;51.870;6.160;2023-08-30T13:30:12;3.83;;;1.65;;
4448;SDS011;2237;51.870;6.160;2023-08-30T13:32:38;7.68;;;2.00;;
4448;SDS011;2237;51.870;6.160;2023-08-30T13:35:05;3.38;;;1.60;;
4448;SDS011;2237;51.870;6.160;2023-08-30T13:37:32;4.10;;;1.77;;
4448;SDS011;2237;51.870;6.160;2023-08-30T13:39:58;5.38;;;2.30;;
4448;SDS011;2237;51.870;6.160;2023-08-30T13:42:25;2.47;;;1.23;;
4448;SDS011;2237;51.870;6.160;2023-08-30T13:44:51;4.47;;;1.73;;
4448;SDS011;2237;51.870;6.160;2023-08-30T13:47:18;5.50;;;1.60;;
4448;SDS011;2237;51.870;6.160;2023-08-30T13:49:46;3.58;;;1.45;;
4448;SDS011;2237;51.870;6.160;2023-08-30T13:52:12;2.17;;;1.05;;
4448;SDS011;2237;51.870;6.160;2023-08-30T13:54:39;5.53;;;1.70;;
4448;SDS011;2237;51.870;6.160;2023-08-30T13:57:05;4.05;;;1.38;;
4448;SDS011;2237;51.870;6.160;2023-08-30T13:59:31;5.50;;;1.42;;
4448;SDS011;2237;51.870;6.160;2023-08-30T14:01:58;4.50;;;1.58;;
4448;SDS011;2237;51.870;6.160;2023-08-30T14:04:24;4.45;;;1.50;;
4448;SDS011;2237;51.870;6.160;2023-08-30T14:06:52;6.30;;;1.40;;
4448;SDS011;2237;51.870;6.160;2023-08-30T14:09:18;6.03;;;1.25;;
4448;SDS011;2237;51.870;6.160;2023-08-30T14:11:45;3.20;;;1.20;;
4448;SDS011;2237;51.870;6.160;2023-08-30T14:14:11;4.82;;;1.25;;
4448;SDS011;2237;51.870;6.160;2023-08-30T14:16:37;4.25;;;1.38;;
4448;SDS011;2237;51.870;6.160;2023-08-30T14:19:04;4.00;;;1.10;;
4448;SDS011;2237;51.870;6.160;2023-08-30T14:21:32;4.50;;;1.10;;
4448;SDS011;2237;51.870;6.160;2023-08-30T14:23:59;6.07;;;1.40;;
4448;SDS011;2237;51.870;6.160;2023-08-30T14:26:25;6.78;;;1.35;;
4448;SDS011;2237;51.870;6.160;2023-08-30T14:28:52;3.55;;;1.25;;
4448;SDS011;2237;51.870;6.160;2023-08-30T14:31:18;3.83;;;1.17;;
4448;SDS011;2237;51.870;6.160;2023-08-30T14:33:45;6.45;;;1.25;;
4448;SDS011;2237;51.870;6.160;2023-08-30T14:36:12;4.22;;;1.20;;
4448;SDS011;2237;51.870;6.160;2023-08-30T14:38:38;3.72;;;1.27;;
4448;SDS011;2237;51.870;6.160;2023-08-30T14:41:06;5.00;;;1.10;;
4448;SDS011;2237;51.870;6.160;2023-08-30T14:43:33;5.30;;;1.20;;
4448;SDS011;2237;51.870;6.160;2023-08-30T14:46:00;2.65;;;1.00;;
4448;SDS011;2237;51.870;6.160;2023-08-30T14:48:37;3.05;;;1.00;;
4448;SDS011;2237;51.870;6.160;2023-08-30T14:51:04;3.63;;;0.80;;
4448;SDS011;2237;51.870;6.160;2023-08-30T14:53:31;6.25;;;1.38;;
4448;SDS011;2237;51.870;6.160;2023-08-30T14:55:58;5.43;;;1.10;;
4448;SDS011;2237;51.870;6.160;2023-08-30T14:58:24;4.35;;;1.20;;
4448;SDS011;2237;51.870;6.160;2023-08-30T15:00:51;5.18;;;1.10;;
4448;SDS011;2237;51.870;6.160;2023-08-30T15:03:17;5.03;;;1.35;;
4448;SDS011;2237;51.870;6.160;2023-08-30T15:05:51;4.57;;;1.00;;
4448;SDS011;2237;51.870;6.160;2023-08-30T15:08:20;4.80;;;1.05;;
4448;SDS011;2237;51.870;6.160;2023-08-30T15:10:48;4.82;;;1.05;;
4448;SDS011;2237;51.870;6.160;2023-08-30T15:13:14;7.65;;;1.27;;
4448;SDS011;2237;51.870;6.160;2023-08-30T15:15:41;4.22;;;1.10;;
4448;SDS011;2237;51.870;6.160;2023-08-30T15:18:07;3.90;;;1.15;;
4448;SDS011;2237;51.870;6.160;2023-08-30T15:20:34;3.50;;;0.85;;